createdAt,value
2023-07-06T00:01:47.011Z,3.55
2023-07-06T00:04:15.844Z,2.47
2023-07-06T00:06:43.142Z,3.33
2023-07-06T00:09:11.059Z,2.75
2023-07-06T00:11:39.629Z,3.55
2023-07-06T00:14:08.709Z,2.45
2023-07-06T00:16:36.247Z,2.53
2023-07-06T00:19:05.138Z,5.20
2023-07-06T00:21:32.084Z,2.78
2023-07-06T00:23:58.951Z,2.10
2023-07-06T00:26:25.945Z,3.15
2023-07-06T00:28:54.675Z,2.60
2023-07-06T00:31:33.371Z,2.45
2023-07-06T00:34:05.433Z,2.97
2023-07-06T00:36:33.576Z,2.70
2023-07-06T00:39:03.602Z,3.05
2023-07-06T00:41:31.920Z,2.58
2023-07-06T00:44:00.028Z,2.30
2023-07-06T00:46:34.973Z,2.53
2023-07-06T00:49:03.488Z,2.25
2023-07-06T00:51:34.679Z,2.78
2023-07-06T00:54:05.976Z,2.63
2023-07-06T00:56:37.953Z,2.97
2023-07-06T00:59:07.867Z,4.45
2023-07-06T01:01:36.810Z,3.38
2023-07-06T01:04:05.608Z,3.25
2023-07-06T01:06:35.672Z,2.28
2023-07-06T01:09:06.059Z,2.85
2023-07-06T01:11:36.670Z,2.83
2023-07-06T01:14:03.772Z,2.17
2023-07-06T01:16:31.547Z,3.42
2023-07-06T01:19:07.416Z,4.50
2023-07-06T01:21:42.893Z,2.95
2023-07-06T01:24:37.836Z,3.15
2023-07-06T01:27:16.765Z,3.10
2023-07-06T01:30:02.325Z,3.28
2023-07-06T01:32:33.593Z,2.60
2023-07-06T01:35:21.026Z,2.53
2023-07-06T01:37:48.042Z,3.17
2023-07-06T01:40:15.021Z,4.03
2023-07-06T01:42:43.995Z,4.32
2023-07-06T01:45:20.076Z,4.63
2023-07-06T01:47:52.328Z,2.85
2023-07-06T01:50:22.085Z,3.60
2023-07-06T01:53:01.271Z,3.60
2023-07-06T01:55:34.089Z,4.43
2023-07-06T01:58:06.924Z,2.28
2023-07-06T02:00:36.669Z,2.88
2023-07-06T02:03:07.055Z,3.30
2023-07-06T02:05:35.417Z,1.95
2023-07-06T02:08:03.117Z,2.20
2023-07-06T02:10:31.564Z,4.25
2023-07-06T02:12:58.930Z,3.67
2023-07-06T02:15:25.833Z,2.88
2023-07-06T02:17:52.923Z,3.50
2023-07-06T02:20:20.633Z,3.67
2023-07-06T02:22:48.107Z,5.80
2023-07-06T02:25:16.897Z,3.17
2023-07-06T02:27:43.971Z,3.55
2023-07-06T02:30:11.335Z,3.20
2023-07-06T02:32:40.801Z,2.33
2023-07-06T02:35:12.021Z,3.05
2023-07-06T02:37:43.223Z,2.65
2023-07-06T02:40:12.204Z,2.47
2023-07-06T02:42:42.753Z,3.15
2023-07-06T02:45:11.044Z,3.05
2023-07-06T02:47:38.321Z,2.65
2023-07-06T02:50:06.267Z,3.72
2023-07-06T02:52:33.051Z,3.38
2023-07-06T02:54:59.867Z,2.80
2023-07-06T02:57:26.710Z,2.25
2023-07-06T02:59:57.256Z,2.60
2023-07-06T03:02:24.485Z,3.25
2023-07-06T03:04:54.580Z,2.95
2023-07-06T03:07:24.648Z,3.08
2023-07-06T03:09:51.637Z,5.40
2023-07-06T03:12:18.818Z,2.95
2023-07-06T03:14:47.618Z,3.55
2023-07-06T03:17:14.734Z,3.33
2023-07-06T03:19:43.003Z,5.20
2023-07-06T03:22:12.234Z,3.00
2023-07-06T03:24:39.327Z,2.97
2023-07-06T03:27:06.457Z,4.57
2023-07-06T03:29:36.882Z,4.45
2023-07-06T03:32:07.538Z,3.92
2023-07-06T03:34:34.957Z,2.13
2023-07-06T03:37:03.756Z,4.30
2023-07-06T03:39:30.895Z,2.40
2023-07-06T03:41:58.560Z,3.55
2023-07-06T03:44:25.664Z,5.65
2023-07-06T03:46:52.540Z,2.72
2023-07-06T03:49:20.305Z,2.30
2023-07-06T03:51:49.193Z,2.03
2023-07-06T03:54:17.196Z,2.13
2023-07-06T03:56:44.297Z,3.03
2023-07-06T03:59:11.102Z,4.45
2023-07-06T04:01:38.478Z,3.63
2023-07-06T04:04:07.650Z,4.57
2023-07-06T04:06:41.669Z,2.90
2023-07-06T04:09:12.211Z,3.35
2023-07-06T04:11:39.362Z,2.25
2023-07-06T04:14:06.558Z,2.72
2023-07-06T04:16:33.561Z,2.35
2023-07-06T04:19:00.971Z,3.80
2023-07-06T04:21:29.510Z,2.80
2023-07-06T04:23:56.815Z,3.55
2023-07-06T04:26:25.644Z,3.38
2023-07-06T04:28:52.495Z,3.08
2023-07-06T04:31:19.512Z,3.80
2023-07-06T04:33:50.286Z,3.47
2023-07-06T04:36:18.975Z,3.42
2023-07-06T04:38:46.811Z,2.55
2023-07-06T04:41:14.714Z,2.97
2023-07-06T04:43:41.816Z,3.25
2023-07-06T04:46:10.242Z,3.85
2023-07-06T04:48:37.808Z,2.95
2023-07-06T04:51:05.461Z,2.45
2023-07-06T04:53:34.338Z,3.88
2023-07-06T04:56:02.072Z,4.13
2023-07-06T04:58:30.493Z,3.25
2023-07-06T05:00:58.773Z,3.80
2023-07-06T05:03:25.785Z,4.00
2023-07-06T05:05:54.687Z,2.80
2023-07-06T05:08:23.204Z,4.57
2023-07-06T05:10:52.576Z,4.60
2023-07-06T05:13:21.338Z,3.40
2023-07-06T05:15:50.110Z,5.53
2023-07-06T05:18:21.003Z,3.47
2023-07-06T05:20:52.567Z,3.75
2023-07-06T05:23:20.325Z,3.47
2023-07-06T05:25:48.112Z,4.22
2023-07-06T05:28:20.769Z,4.35
2023-07-06T05:30:49.354Z,3.88
2023-07-06T05:33:16.940Z,3.70
2023-07-06T05:35:44.424Z,3.85
2023-07-06T05:38:12.482Z,3.95
2023-07-06T05:40:41.641Z,3.65
2023-07-06T05:43:09.918Z,3.20
2023-07-06T05:45:37.028Z,4.70
2023-07-06T05:48:04.330Z,3.17
2023-07-06T05:50:31.670Z,3.53
2023-07-06T05:52:59.241Z,4.47
2023-07-06T05:55:26.199Z,5.57
2023-07-06T05:57:53.423Z,4.50
2023-07-06T06:00:20.908Z,4.75
2023-07-06T06:02:47.762Z,3.38
2023-07-06T06:05:16.407Z,4.35
2023-07-06T06:07:47.040Z,16.15
2023-07-06T06:10:14.577Z,2.72
2023-07-06T06:12:42.542Z,7.38
2023-07-06T06:15:09.988Z,4.28
2023-07-06T06:17:38.854Z,5.13
2023-07-06T06:20:10.014Z,4.82
2023-07-06T06:22:37.433Z,4.18
2023-07-06T06:25:04.653Z,6.20
2023-07-06T06:27:31.581Z,4.57
2023-07-06T06:29:59.699Z,3.80
2023-07-06T06:32:26.920Z,3.95
2023-07-06T06:34:54.136Z,5.30
2023-07-06T06:37:21.386Z,3.75
2023-07-06T06:39:51.275Z,3.55
2023-07-06T06:42:20.067Z,4.20
2023-07-06T06:44:47.368Z,5.35
2023-07-06T06:47:14.374Z,4.70
2023-07-06T06:49:41.219Z,5.25
2023-07-06T06:52:08.517Z,3.95
2023-07-06T06:54:35.802Z,5.03
2023-07-06T06:57:04.566Z,4.25
2023-07-06T06:59:34.526Z,4.32
2023-07-06T07:02:04.251Z,4.43
2023-07-06T07:04:32.695Z,6.20
2023-07-06T07:07:04.518Z,3.75
2023-07-06T07:09:32.000Z,5.40
2023-07-06T07:11:59.446Z,4.32
2023-07-06T07:14:26.375Z,5.78
2023-07-06T07:16:53.371Z,4.28
2023-07-06T07:19:20.661Z,5.25
2023-07-06T07:21:48.703Z,6.00
2023-07-06T07:24:16.136Z,5.55
2023-07-06T07:26:44.508Z,4.32
2023-07-06T07:29:11.386Z,4.00
2023-07-06T07:31:39.779Z,5.18
2023-07-06T07:34:06.955Z,4.13
2023-07-06T07:36:35.314Z,3.45
2023-07-06T07:39:06.191Z,3.90
2023-07-06T07:41:33.522Z,4.57
2023-07-06T07:44:02.622Z,3.78
2023-07-06T07:46:31.210Z,4.28
2023-07-06T07:48:58.622Z,3.33
2023-07-06T07:51:27.942Z,3.47
2023-07-06T07:53:56.389Z,3.95
2023-07-06T07:56:25.085Z,4.13
2023-07-06T07:58:52.346Z,3.03
2023-07-06T08:01:26.283Z,4.43
2023-07-06T08:03:56.049Z,4.53
2023-07-06T08:06:23.797Z,3.70
2023-07-06T08:08:52.082Z,3.63
2023-07-06T08:11:22.690Z,3.55
2023-07-06T08:13:55.559Z,3.35
2023-07-06T08:16:24.286Z,3.75
2023-07-06T08:19:02.737Z,3.63
2023-07-06T08:22:00.243Z,3.63
2023-07-06T08:24:28.692Z,3.50
2023-07-06T08:26:55.888Z,3.53
2023-07-06T08:29:23.411Z,3.03
2023-07-06T08:31:51.419Z,4.10
2023-07-06T08:34:18.502Z,4.05
2023-07-06T08:36:45.990Z,5.72
2023-07-06T08:39:12.929Z,3.15
2023-07-06T08:41:43.568Z,3.88
2023-07-06T08:44:15.977Z,3.50
2023-07-06T08:46:55.434Z,3.95
2023-07-06T08:49:30.353Z,3.97
2023-07-06T08:52:03.521Z,3.13
2023-07-06T08:54:32.450Z,3.65
2023-07-06T08:57:00.934Z,3.25
2023-07-06T08:59:39.411Z,4.30
2023-07-06T09:02:20.385Z,3.22
2023-07-06T09:04:48.995Z,3.53
2023-07-06T09:07:18.101Z,2.92
2023-07-06T09:09:47.729Z,4.10
2023-07-06T09:12:21.438Z,2.90
2023-07-06T09:14:52.389Z,3.10
2023-07-06T09:17:23.150Z,4.10
2023-07-06T09:19:52.565Z,3.25
2023-07-06T09:22:20.203Z,3.15
2023-07-06T09:24:47.143Z,3.58
2023-07-06T09:27:25.728Z,4.07
2023-07-06T09:30:02.329Z,4.30
2023-07-06T09:32:35.030Z,3.78
2023-07-06T09:35:09.739Z,3.50
2023-07-06T09:40:15.587Z,2.92
2023-07-06T09:42:46.110Z,4.22
2023-07-06T09:45:22.431Z,3.75
2023-07-06T09:47:54.944Z,3.50
2023-07-06T09:50:24.311Z,3.55
2023-07-06T09:52:51.407Z,3.38
2023-07-06T09:55:30.903Z,3.55
2023-07-06T09:57:59.086Z,4.43
2023-07-06T10:00:35.397Z,3.92
2023-07-06T10:03:13.792Z,3.83
2023-07-06T10:05:40.793Z,3.92
2023-07-06T10:08:14.677Z,4.03
2023-07-06T10:11:00.340Z,5.07
2023-07-06T10:13:36.727Z,4.07
2023-07-06T10:16:16.754Z,3.75
2023-07-06T10:18:53.562Z,3.88
2023-07-06T10:21:37.730Z,4.40
2023-07-06T10:24:24.749Z,5.63
2023-07-06T10:26:56.768Z,5.28
2023-07-06T10:29:30.334Z,3.83
2023-07-06T10:32:02.445Z,3.67
2023-07-06T10:34:44.458Z,6.72
2023-07-06T10:37:15.900Z,4.28
2023-07-06T10:39:45.996Z,5.20
2023-07-06T10:42:24.601Z,4.82
2023-07-06T10:44:53.536Z,5.28
2023-07-06T10:47:38.693Z,5.78
2023-07-06T10:50:09.086Z,3.78
2023-07-06T10:52:42.083Z,4.88
2023-07-06T10:55:31.327Z,4.93
2023-07-06T10:58:29.450Z,4.13
2023-07-06T11:00:58.148Z,4.05
2023-07-06T11:03:32.864Z,4.40
2023-07-06T11:06:13.058Z,3.50
2023-07-06T11:09:09.243Z,4.78
2023-07-06T11:11:43.027Z,4.65
2023-07-06T11:14:32.847Z,3.57
2023-07-06T11:17:14.711Z,3.47
2023-07-06T11:20:00.140Z,3.80
2023-07-06T11:22:27.356Z,3.80
2023-07-06T11:25:05.511Z,3.58
2023-07-06T11:27:35.871Z,3.90
2023-07-06T11:30:16.485Z,4.22
2023-07-06T11:32:43.523Z,3.72
2023-07-06T11:35:33.343Z,4.22
2023-07-06T11:38:39.738Z,3.45
2023-07-06T11:41:27.657Z,3.22
2023-07-06T11:44:14.968Z,4.70
2023-07-06T11:47:13.209Z,4.28
2023-07-06T11:49:49.162Z,3.70
2023-07-06T11:52:23.407Z,3.92
2023-07-06T11:55:06.325Z,5.05
2023-07-06T11:57:46.541Z,4.05
2023-07-06T12:00:18.512Z,4.55
2023-07-06T12:03:04.774Z,3.70
2023-07-06T12:05:47.888Z,4.13
2023-07-06T12:08:29.151Z,3.70
2023-07-06T12:11:21.429Z,3.55
2023-07-06T12:13:54.148Z,4.10
2023-07-06T12:16:26.267Z,4.28
2023-07-06T12:19:04.820Z,3.85
2023-07-06T12:21:45.493Z,3.60
2023-07-06T12:24:20.482Z,3.58
2023-07-06T12:26:51.437Z,3.88
2023-07-06T12:29:20.249Z,3.85
2023-07-06T12:31:48.664Z,4.43
2023-07-06T12:34:20.855Z,3.80
2023-07-06T12:36:51.247Z,3.53
2023-07-06T12:39:21.005Z,3.78
2023-07-06T12:41:48.537Z,3.50
2023-07-06T12:44:19.898Z,4.13
2023-07-06T12:46:55.101Z,4.07
2023-07-06T12:49:24.534Z,4.80
2023-07-06T12:51:57.045Z,5.32
2023-07-06T12:54:24.921Z,3.42
2023-07-06T12:57:04.745Z,4.20
2023-07-06T12:59:34.228Z,3.50
2023-07-06T13:02:16.459Z,4.47
2023-07-06T13:04:49.021Z,3.90
2023-07-06T13:07:18.865Z,3.30
2023-07-06T13:09:47.150Z,3.50
2023-07-06T13:12:26.489Z,4.10
2023-07-06T13:14:54.682Z,3.33
2023-07-06T13:17:27.823Z,4.35
2023-07-06T13:19:56.451Z,4.43
2023-07-06T13:22:24.657Z,4.28
2023-07-06T13:24:52.784Z,4.00
2023-07-06T13:27:21.877Z,4.35
2023-07-06T13:29:51.772Z,4.22
2023-07-06T13:32:22.236Z,5.00
2023-07-06T13:34:51.407Z,5.90
2023-07-06T13:37:25.240Z,4.13
2023-07-06T13:39:52.388Z,3.80
2023-07-06T13:42:20.914Z,3.47
2023-07-06T13:44:49.925Z,4.38
2023-07-06T13:47:19.990Z,3.80
2023-07-06T13:49:51.875Z,3.33
2023-07-06T13:52:21.742Z,3.28
2023-07-06T13:54:49.211Z,6.07
2023-07-06T13:57:16.389Z,4.47
2023-07-06T13:59:43.356Z,3.58
2023-07-06T14:02:14.525Z,4.68
2023-07-06T14:04:43.641Z,4.88
2023-07-06T14:07:11.715Z,4.20
2023-07-06T14:09:38.802Z,3.17
2023-07-06T14:12:08.388Z,4.57
2023-07-06T14:14:35.588Z,4.13
2023-07-06T14:17:04.741Z,3.95
2023-07-06T14:19:31.951Z,4.18
2023-07-06T14:21:58.927Z,3.65
2023-07-06T14:24:26.700Z,3.97
2023-07-06T14:26:53.586Z,4.15
2023-07-06T14:29:20.669Z,4.47
2023-07-06T14:31:50.575Z,3.67
2023-07-06T14:34:23.613Z,4.20
2023-07-06T14:36:51.232Z,3.75
2023-07-06T14:39:21.577Z,3.50
2023-07-06T14:41:48.673Z,4.47
2023-07-06T14:44:15.640Z,3.47
2023-07-06T14:46:42.914Z,5.40
2023-07-06T14:49:10.226Z,3.65
2023-07-06T14:51:37.624Z,3.17
2023-07-06T14:54:05.489Z,3.83
2023-07-06T14:56:32.546Z,4.90
2023-07-06T14:58:59.564Z,3.50
2023-07-06T15:01:26.514Z,5.43
2023-07-06T15:03:53.423Z,4.13
2023-07-06T15:06:21.036Z,3.50
2023-07-06T15:08:48.326Z,3.30
2023-07-06T15:11:17.496Z,3.22
2023-07-06T15:13:44.745Z,3.97
2023-07-06T15:16:12.102Z,3.83
2023-07-06T15:18:39.467Z,5.32
2023-07-06T15:21:12.875Z,3.58
2023-07-06T15:23:41.839Z,4.80
2023-07-06T15:26:09.726Z,4.35
2023-07-06T15:28:36.756Z,4.28
2023-07-06T15:31:03.745Z,4.13
2023-07-06T15:33:31.197Z,3.78
2023-07-06T15:35:58.734Z,3.95
2023-07-06T15:38:26.707Z,3.70
2023-07-06T15:40:54.596Z,4.03
2023-07-06T15:43:21.448Z,4.85
2023-07-06T15:45:48.388Z,4.43
2023-07-06T15:48:15.618Z,4.13
2023-07-06T15:50:43.638Z,5.10
2023-07-06T15:53:11.217Z,3.47
2023-07-06T15:55:38.200Z,3.85
2023-07-06T15:58:05.619Z,4.53
2023-07-06T16:00:32.855Z,4.30
2023-07-06T16:03:00.624Z,3.40
2023-07-06T16:05:28.327Z,3.83
2023-07-06T16:07:57.297Z,3.47
2023-07-06T16:10:25.003Z,4.57
2023-07-06T16:12:52.184Z,4.18
2023-07-06T16:15:19.238Z,4.40
2023-07-06T16:17:46.390Z,5.40
2023-07-06T16:20:13.552Z,3.92
2023-07-06T16:22:40.651Z,3.35
2023-07-06T16:25:07.889Z,4.30
2023-07-06T16:27:34.805Z,3.72
2023-07-06T16:30:01.646Z,3.88
2023-07-06T16:32:28.578Z,4.65
2023-07-06T16:34:55.471Z,3.45
2023-07-06T16:37:22.363Z,4.72
2023-07-06T16:39:49.343Z,3.38
2023-07-06T16:42:16.301Z,3.70
2023-07-06T16:44:43.496Z,3.45
2023-07-06T16:47:10.378Z,3.85
2023-07-06T16:49:37.288Z,4.55
2023-07-06T16:52:04.257Z,3.78
2023-07-06T16:54:31.098Z,4.07
2023-07-06T16:56:57.990Z,4.38
2023-07-06T16:59:24.932Z,3.17
2023-07-06T17:01:52.923Z,4.75
2023-07-06T17:04:19.988Z,3.95
2023-07-06T17:06:47.141Z,3.60
2023-07-06T17:09:14.622Z,3.17
2023-07-06T17:11:41.742Z,3.80
2023-07-06T17:14:09.182Z,4.13
2023-07-06T17:16:36.186Z,3.35
2023-07-06T17:19:03.319Z,4.57
2023-07-06T17:21:30.261Z,5.53
2023-07-06T17:23:57.599Z,3.72
2023-07-06T17:26:24.949Z,3.42
2023-07-06T17:28:51.899Z,3.42
2023-07-06T17:31:19.510Z,6.00
2023-07-06T17:33:46.439Z,4.30
2023-07-06T17:36:13.556Z,4.63
2023-07-06T17:38:40.643Z,4.20
2023-07-06T17:41:10.404Z,3.10
2023-07-06T17:43:38.871Z,4.05
2023-07-06T17:46:06.574Z,3.20
2023-07-06T17:48:34.926Z,3.15
2023-07-06T17:51:03.465Z,3.55
2023-07-06T17:53:31.059Z,3.40
2023-07-06T17:55:59.255Z,3.45
2023-07-06T17:58:27.277Z,2.88
2023-07-06T18:00:55.008Z,3.75
2023-07-06T18:03:23.174Z,4.00
2023-07-06T18:05:51.475Z,3.28
2023-07-06T18:08:18.855Z,3.33
2023-07-06T18:10:46.881Z,4.38
2023-07-06T18:13:13.925Z,3.90
2023-07-06T18:15:41.314Z,3.67
2023-07-06T18:18:09.004Z,3.70
2023-07-06T18:20:36.553Z,3.75
2023-07-06T18:23:04.209Z,2.95
2023-07-06T18:25:31.203Z,4.38
2023-07-06T18:27:58.805Z,3.25
2023-07-06T18:30:25.936Z,3.33
2023-07-06T18:32:53.241Z,3.30
2023-07-06T18:35:20.266Z,3.65
2023-07-06T18:37:47.209Z,3.83
2023-07-06T18:40:14.427Z,3.15
2023-07-06T18:42:41.565Z,3.53
2023-07-06T18:45:09.910Z,3.75
2023-07-06T18:47:38.243Z,3.38
2023-07-06T18:50:07.421Z,3.20
2023-07-06T18:52:36.920Z,2.53
2023-07-06T18:55:05.211Z,3.15
2023-07-06T18:57:32.159Z,3.10
2023-07-06T18:59:59.391Z,3.50
2023-07-06T19:02:26.582Z,3.83
2023-07-06T19:04:53.784Z,5.70
2023-07-06T19:07:21.009Z,6.38
2023-07-06T19:09:49.320Z,4.43
2023-07-06T19:12:16.773Z,5.93
2023-07-06T19:14:43.970Z,5.07
2023-07-06T19:17:11.171Z,6.38
2023-07-06T19:19:38.380Z,6.43
2023-07-06T19:22:06.947Z,6.57
2023-07-06T19:24:34.675Z,7.68
2023-07-06T19:27:01.604Z,6.43
2023-07-06T19:29:28.584Z,5.05
2023-07-06T19:32:04.082Z,5.95
2023-07-06T19:34:39.037Z,5.10
2023-07-06T19:37:05.986Z,5.80
2023-07-06T19:39:32.959Z,5.72
2023-07-06T19:41:59.846Z,8.70
2023-07-06T19:44:27.380Z,9.90
2023-07-06T19:46:54.596Z,7.82
2023-07-06T19:49:21.999Z,7.00
2023-07-06T19:51:48.917Z,7.13
2023-07-06T19:54:16.040Z,7.50
2023-07-06T19:56:42.974Z,7.75
2023-07-06T19:59:10.818Z,8.80
2023-07-06T20:01:39.905Z,7.95
2023-07-06T20:04:11.252Z,6.43
2023-07-06T20:06:40.376Z,5.65
2023-07-06T20:09:07.571Z,7.80
2023-07-06T20:11:34.575Z,9.95
2023-07-06T20:14:02.335Z,9.25
2023-07-06T20:16:29.595Z,8.50
2023-07-06T20:18:56.729Z,9.35
2023-07-06T20:21:23.580Z,9.73
2023-07-06T20:23:50.818Z,10.23
2023-07-06T20:26:17.891Z,6.07
2023-07-06T20:28:44.863Z,5.38
2023-07-06T20:31:11.845Z,6.57
2023-07-06T20:33:39.228Z,6.25
2023-07-06T20:36:07.565Z,6.70
2023-07-06T20:38:35.124Z,6.97
2023-07-06T20:41:02.301Z,5.72
2023-07-06T20:43:31.628Z,6.50
2023-07-06T20:45:59.694Z,7.22
2023-07-06T20:48:26.819Z,6.95
2023-07-06T20:50:55.547Z,5.63
2023-07-06T20:53:22.727Z,9.82
2023-07-06T20:55:50.154Z,6.85
2023-07-06T20:58:17.225Z,6.03
2023-07-06T21:00:44.353Z,7.57
2023-07-06T21:03:11.372Z,8.80
2023-07-06T21:05:41.913Z,6.40
2023-07-06T21:08:09.136Z,6.72
2023-07-06T21:10:36.157Z,7.07
2023-07-06T21:13:03.033Z,6.00
2023-07-06T21:15:30.158Z,6.63
2023-07-06T21:17:57.142Z,10.45
2023-07-06T21:20:24.131Z,8.23
2023-07-06T21:22:51.070Z,7.20
2023-07-06T21:25:18.135Z,6.93
2023-07-06T21:27:45.382Z,7.40
2023-07-06T21:30:12.450Z,5.80
2023-07-06T21:32:39.769Z,6.78
2023-07-06T21:35:06.955Z,8.32
2023-07-06T21:37:33.831Z,7.13
2023-07-06T21:40:00.863Z,8.45
2023-07-06T21:42:27.690Z,8.77
2023-07-06T21:44:54.564Z,6.70
2023-07-06T21:47:21.512Z,11.52
2023-07-06T21:49:48.368Z,6.93
2023-07-06T21:52:15.177Z,7.85
2023-07-06T21:54:42.058Z,8.68
2023-07-06T21:57:09.070Z,8.35
2023-07-06T21:59:35.799Z,9.55
2023-07-06T22:02:02.690Z,11.23
2023-07-06T22:04:29.876Z,8.40
2023-07-06T22:06:56.870Z,8.45
2023-07-06T22:09:23.653Z,6.38
2023-07-06T22:11:51.798Z,9.70
2023-07-06T22:14:18.909Z,8.48
2023-07-06T22:16:45.721Z,6.43
2023-07-06T22:19:12.605Z,5.85
2023-07-06T22:21:39.662Z,7.90
2023-07-06T22:24:08.439Z,5.18
2023-07-06T22:26:35.501Z,7.82
2023-07-06T22:29:02.385Z,6.05
2023-07-06T22:31:29.235Z,11.35
2023-07-06T22:33:56.178Z,9.57
2023-07-06T22:36:23.088Z,6.40
2023-07-06T22:38:49.917Z,8.82
2023-07-06T22:41:16.728Z,8.40
2023-07-06T22:43:43.601Z,10.57
2023-07-06T22:46:10.638Z,7.13
2023-07-06T22:48:37.595Z,9.13
2023-07-06T22:51:04.581Z,7.47
2023-07-06T22:53:32.210Z,7.55
2023-07-06T22:55:59.727Z,7.70
2023-07-06T22:58:26.782Z,5.78
2023-07-06T23:00:53.782Z,6.88
2023-07-06T23:03:21.865Z,7.28
2023-07-06T23:05:48.927Z,7.68
2023-07-06T23:08:16.040Z,6.07
2023-07-06T23:10:45.335Z,7.28
2023-07-06T23:13:14.278Z,6.80
2023-07-06T23:15:44.531Z,6.15
2023-07-06T23:18:11.657Z,8.10
2023-07-06T23:20:39.837Z,6.50
2023-07-06T23:23:06.917Z,5.25
2023-07-06T23:25:35.508Z,10.50
2023-07-06T23:28:06.890Z,9.15
2023-07-06T23:30:40.235Z,6.68
2023-07-06T23:33:11.863Z,6.55
2023-07-06T23:35:43.248Z,6.05
2023-07-06T23:38:13.630Z,6.60
2023-07-06T23:40:42.113Z,5.68
2023-07-06T23:43:09.865Z,7.18
2023-07-06T23:45:37.214Z,8.13
2023-07-06T23:48:05.512Z,6.43
2023-07-06T23:50:33.122Z,6.72
2023-07-06T23:53:00.250Z,7.32
2023-07-06T23:55:27.306Z,5.85
2023-07-06T23:57:54.161Z,6.50
